Time;durP1;ratioP1;P1;durP2;ratioP2;P2;SDS_P1;SDS_P2;PMS_P1;PMS_P2;Temp;Humidity;BMP_temperature;BMP_pressure;BME280_temperature;BME280_humidity;BME280_pressure;Samples;Min_cycle;Max_cycle;Signal;HPM_P1;HPM_P2
2021/04/08 00:00:27;;;;;;;3.83;3.00;;;;;;;-2.85;76.84;95523.95;1740339;82;21134;-70
2021/04/08 00:02:56;;;;;;;4.73;2.77;;;;;;;-2.90;76.69;95525.13;1740161;81;21138;-70
2021/04/08 00:05:24;;;;;;;2.50;1.80;;;;;;;-2.95;76.85;95522.82;1740068;82;21648;-70
2021/04/08 00:07:52;;;;;;;4.07;2.57;;;;;;;-2.97;77.01;95520.59;1740458;82;21149;-70
2021/04/08 00:10:20;;;;;;;3.83;2.53;;;;;;;-3.05;77.01;95520.74;1740073;82;21276;-70
2021/04/08 00:12:48;;;;;;;6.67;3.03;;;;;;;-3.08;77.22;95525.81;1719559;82;21130;-70
2021/04/08 00:15:16;;;;;;;4.37;2.23;;;;;;;-3.10;76.89;95521.91;1740322;82;21110;-70
2021/04/08 00:17:44;;;;;;;7.50;4.30;;;;;;;-2.98;76.69;95523.12;1740369;82;21138;-70
2021/04/08 00:20:19;;;;;;;6.67;3.20;;;;;;;-2.96;76.68;95531.80;1739992;82;21283;-71
2021/04/08 00:22:47;;;;;;;6.80;3.80;;;;;;;-3.03;77.40;95532.00;1740320;82;21141;-71
2021/04/08 00:25:15;;;;;;;5.23;3.20;;;;;;;-3.13;76.92;95536.41;1740229;82;21308;-70
2021/04/08 00:27:44;;;;;;;5.27;3.40;;;;;;;-3.22;77.51;95537.41;1740347;82;21600;-70
2021/04/08 00:30:14;;;;;;;3.57;2.70;;;;;;;-3.28;76.98;95544.13;1749588;81;21160;-70
2021/04/08 00:32:42;;;;;;;6.50;3.63;;;;;;;-3.38;77.87;95539.45;1754483;82;21098;-70
2021/04/08 00:35:11;;;;;;;6.93;2.97;;;;;;;-3.43;77.73;95542.70;1754348;81;21098;-71
2021/04/08 00:37:39;;;;;;;7.77;3.13;;;;;;;-3.45;78.41;95546.55;1754164;82;21595;-70
2021/04/08 00:40:15;;;;;;;6.80;3.63;;;;;;;-3.45;78.28;95537.52;1754791;82;21129;-70
2021/04/08 00:42:43;;;;;;;6.60;3.53;;;;;;;-3.37;77.83;95542.52;1754560;82;21280;-70
2021/04/08 00:45:11;;;;;;;6.33;3.97;;;;;;;-3.30;77.79;95552.22;1753977;82;21145;-70
2021/04/08 00:47:39;;;;;;;11.20;5.33;;;;;;;-3.31;77.82;95548.28;1754520;82;21146;-70
2021/04/08 00:50:08;;;;;;;11.23;5.20;;;;;;;-3.32;77.54;95548.70;1754115;82;21149;-70
2021/04/08 00:52:38;;;;;;;13.17;5.67;;;;;;;-3.31;77.08;95550.45;1753967;81;21145;-70
2021/04/08 00:55:07;;;;;;;11.60;5.63;;;;;;;-3.26;76.66;95557.06;1754461;82;21161;-70
2021/04/08 00:57:35;;;;;;;13.27;6.70;;;;;;;-3.31;76.43;95557.31;1754152;81;21181;-70
2021/04/08 01:00:06;;;;;;;14.83;6.40;;;;;;;-3.36;76.46;95554.99;1754056;81;21173;-70
2021/04/08 01:02:34;;;;;;;13.00;6.00;;;;;;;-3.44;77.31;95557.73;1754248;81;21105;-70
2021/04/08 01:05:05;;;;;;;12.73;6.27;;;;;;;-3.56;77.42;95557.77;1753944;81;21627;-70
2021/04/08 01:07:33;;;;;;;14.23;6.63;;;;;;;-3.49;77.07;95566.18;1754140;81;21157;-70
2021/04/08 01:10:01;;;;;;;13.23;6.53;;;;;;;-3.58;77.19;95569.75;1754109;82;21130;-70
2021/04/08 01:12:29;;;;;;;14.77;6.27;;;;;;;-3.64;77.52;95570.81;1754251;82;21165;-70
2021/04/08 01:14:58;;;;;;;12.97;6.87;;;;;;;-3.60;77.26;95576.55;1754324;82;21149;-70
2021/04/08 01:17:45;;;;;;;5.80;2.77;;;;;;;-3.65;77.27;95582.34;1754203;81;21615;-70
2021/04/08 01:20:52;;;;;;;6.57;3.73;;;;;;;-3.66;76.98;95578.03;1754136;82;21151;-70
2021/04/08 01:23:43;;;;;;;9.37;4.57;;;;;;;-3.72;77.41;95579.56;1754269;82;21137;-70
2021/04/08 01:26:54;;;;;;;13.77;6.97;;;;;;;-3.75;77.33;95575.59;1753136;82;21137;-70
2021/04/08 01:29:33;;;;;;;11.93;5.03;;;;;;;-3.67;77.87;95584.89;1695663;84;21194;-70
2021/04/08 01:32:05;;;;;;;10.30;5.30;;;;;;;-3.72;77.56;95586.01;1688827;85;21156;-70
2021/04/08 01:34:35;;;;;;;11.13;5.37;;;;;;;-3.85;77.46;95594.55;1726007;82;21146;-70
2021/04/08 01:37:07;;;;;;;14.40;5.67;;;;;;;-3.94;77.75;95603.69;1748394;82;21125;-70
2021/04/08 01:39:38;;;;;;;12.00;5.80;;;;;;;-3.98;77.99;95611.23;1748235;82;21165;-70
2021/04/08 01:42:07;;;;;;;9.77;5.57;;;;;;;-4.01;78.26;95613.71;1748368;82;21151;-71
2021/04/08 01:44:36;;;;;;;7.20;4.27;;;;;;;-4.03;77.94;95609.81;1748425;82;21141;-70
2021/04/08 01:47:09;;;;;;;35.83;13.23;;;;;;;-3.97;77.90;95611.73;1748242;82;21596;-71
2021/04/08 01:49:41;;;;;;;34.97;12.50;;;;;;;-4.11;78.48;95609.91;1748551;81;21122;-70
2021/04/08 01:52:15;;;;;;;34.67;10.73;;;;;;;-4.04;78.13;95611.02;1748424;82;21125;-70
2021/04/08 01:54:47;;;;;;;23.10;9.40;;;;;;;-4.02;78.20;95608.97;1748255;82;21130;-70
2021/04/08 01:57:17;;;;;;;20.82;8.45;;;;;;;-3.96;78.44;95619.50;1748700;82;21121;-70
2021/04/08 01:59:45;;;;;;;14.80;6.57;;;;;;;-3.99;78.34;95619.39;1719122;82;21153;-70
2021/04/08 02:02:14;;;;;;;19.17;6.60;;;;;;;-3.99;78.10;95618.09;1748263;82;21574;-70
2021/04/08 02:04:45;;;;;;;20.80;8.53;;;;;;;-3.96;78.33;95627.64;1748243;82;21136;-70
2021/04/08 02:07:14;;;;;;;12.17;4.73;;;;;;;-4.11;78.56;95631.81;1748351;82;21149;-70
2021/04/08 02:09:45;;;;;;;7.80;3.80;;;;;;;-4.02;78.70;95627.43;1748260;82;21146;-70
2021/04/08 02:12:15;;;;;;;12.67;5.30;;;;;;;-3.87;79.08;95637.44;1748319;82;21145;-70
2021/04/08 02:14:47;;;;;;;8.17;4.37;;;;;;;-3.94;78.35;95642.77;1719413;82;21145;-70
2021/04/08 02:17:17;;;;;;;11.53;4.70;;;;;;;-4.00;77.96;95642.13;1748204;81;21146;-70
2021/04/08 02:19:48;;;;;;;5.67;3.50;;;;;;;-4.00;77.63;95647.28;1748055;82;21138;-70
2021/04/08 02:22:18;;;;;;;9.07;4.53;;;;;;;-3.98;77.87;95647.32;1748070;82;21117;-70
2021/04/08 02:24:47;;;;;;;8.43;4.43;;;;;;;-3.99;77.08;95650.73;1719021;82;21138;-70
2021/04/08 02:27:15;;;;;;;9.40;4.97;;;;;;;-4.16;77.12;95654.84;1748344;81;21166;-70
2021/04/08 02:29:44;;;;;;;7.63;3.80;;;;;;;-4.28;77.48;95664.68;1745892;81;21126;-70
2021/04/08 02:32:13;;;;;;;8.43;4.47;;;;;;;-4.30;77.56;95668.02;1740264;82;21568;-70
2021/04/08 02:34:41;;;;;;;5.47;3.50;;;;;;;-4.35;77.92;95671.27;1740329;82;21265;-70
2021/04/08 02:37:09;;;;;;;6.13;3.73;;;;;;;-4.25;77.86;95675.52;1739901;82;21720;-70
2021/04/08 02:39:37;;;;;;;6.90;4.20;;;;;;;-4.08;78.10;95674.47;1740202;81;21703;-70
2021/04/08 02:42:06;;;;;;;7.37;3.97;;;;;;;-3.96;77.84;95670.17;1740112;82;21615;-70
2021/04/08 02:44:33;;;;;;;10.17;6.60;;;;;;;-3.84;77.73;95674.92;1740089;82;21761;-70
2021/04/08 02:47:01;;;;;;;53.00;22.27;;;;;;;-3.82;77.62;95672.00;1719480;82;21576;-70
2021/04/08 02:49:28;;;;;;;52.97;23.93;;;;;;;-3.85;76.56;95680.49;1740042;82;21146;-70
2021/04/08 02:52:03;;;;;;;48.50;23.57;;;;;;;-3.98;75.76;95683.02;1739902;81;21565;-70
2021/04/08 02:54:48;;;;;;;51.57;23.33;;;;;;;-4.08;76.04;95683.88;1740123;82;21280;-70
2021/04/08 02:57:25;;;;;;;61.93;27.20;;;;;;;-4.27;76.15;95689.61;1739897;82;21698;-70
2021/04/08 02:59:57;;;;;;;41.37;19.03;;;;;;;-4.30;76.52;95690.78;1740311;82;21299;-70
2021/04/08 03:02:29;;;;;;;58.13;24.00;;;;;;;-4.35;76.82;95691.01;1740075;82;21102;-70
2021/04/08 03:04:58;;;;;;;52.67;24.80;;;;;;;-4.54;77.29;95695.81;1739999;81;21135;-70
2021/04/08 03:07:31;;;;;;;58.07;27.43;;;;;;;-4.53;77.09;95695.44;1739922;81;21279;-70
2021/04/08 03:10:02;;;;;;;49.57;24.23;;;;;;;-4.72;78.10;95701.52;1740325;82;21295;-70
2021/04/08 03:12:32;;;;;;;42.07;21.57;;;;;;;-4.70;77.96;95696.89;1740240;82;21292;-70
2021/04/08 03:15:02;;;;;;;61.17;24.30;;;;;;;-4.77;77.99;95707.75;1740205;82;21146;-70
2021/04/08 03:17:34;;;;;;;45.90;22.27;;;;;;;-4.80;77.70;95708.50;1740206;82;21292;-70
2021/04/08 03:20:03;;;;;;;60.50;28.10;;;;;;;-4.85;78.34;95710.01;1739944;81;21149;-70
2021/04/08 03:22:33;;;;;;;59.43;30.53;;;;;;;-4.81;78.55;95709.33;1739997;81;21145;-70
2021/04/08 03:25:01;;;;;;;48.03;24.80;;;;;;;-4.89;78.48;95709.42;1719787;82;21134;-70
2021/04/08 03:27:30;;;;;;;54.10;27.93;;;;;;;-4.83;78.26;95712.25;1740140;82;21297;-70
2021/04/08 03:29:58;;;;;;;53.57;27.67;;;;;;;-4.89;78.26;95709.81;1743270;81;21323;-70
2021/04/08 03:32:26;;;;;;;51.53;24.57;;;;;;;-4.88;77.99;95720.59;1727130;82;21508;-71
2021/04/08 03:34:55;;;;;;;52.53;24.70;;;;;;;-4.88;77.86;95717.61;1754337;82;21580;-70
2021/04/08 03:37:24;;;;;;;52.17;26.23;;;;;;;-4.97;77.55;95726.63;1754156;82;21157;-70
2021/04/08 03:39:52;;;;;;;39.07;19.97;;;;;;;-5.08;78.10;95722.31;1754235;82;21153;-70
2021/04/08 03:42:19;;;;;;;45.03;22.53;;;;;;;-4.99;78.15;95729.12;1754256;82;21596;-70
2021/04/08 03:44:47;;;;;;;48.60;24.40;;;;;;;-4.88;78.27;95723.17;1754171;82;21102;-70
2021/04/08 03:47:15;;;;;;;66.23;29.20;;;;;;;-4.98;77.74;95727.45;1754402;82;21281;-70
2021/04/08 03:49:46;;;;;;;33.43;14.07;;;;;;;-5.04;78.30;95725.47;1754786;82;21306;-70
2021/04/08 03:52:14;;;;;;;49.60;21.20;;;;;;;-5.01;78.47;95722.64;1754304;82;21133;-70
2021/04/08 03:54:43;;;;;;;84.83;32.63;;;;;;;-4.98;78.26;95730.90;1754142;82;21595;-70
2021/04/08 03:57:16;;;;;;;39.53;14.93;;;;;;;-4.98;78.26;95730.90;1754320;82;21137;-70
2021/04/08 03:59:46;;;;;;;23.73;9.15;;;;;;;-4.94;77.74;95728.91;1727056;82;21814;-70
2021/04/08 04:02:16;;;;;;;40.70;16.57;;;;;;;-4.93;77.52;95731.98;1754268;82;21110;-70
2021/04/08 04:04:46;;;;;;;48.60;17.43;;;;;;;-4.98;77.75;95724.47;1754474;82;21244;-70
2021/04/08 04:07:14;;;;;;;50.90;19.33;;;;;;;-5.05;77.94;95739.16;1754244;82;21144;-70
2021/04/08 04:09:42;;;;;;;34.20;13.90;;;;;;;-5.09;77.93;95739.45;1754186;82;21145;-70
2021/04/08 04:12:14;;;;;;;24.00;9.67;;;;;;;-5.10;77.94;95740.25;1754160;82;21141;-70
2021/04/08 04:14:45;;;;;;;26.13;10.53;;;;;;;-5.10;78.07;95739.38;1754260;82;21806;-70
2021/04/08 04:17:29;;;;;;;21.87;10.47;;;;;;;-5.13;78.12;95752.98;1754566;82;21647;-70
2021/04/08 04:20:01;;;;;;;28.00;12.83;;;;;;;-5.15;77.83;95735.73;1754103;82;21118;-70
2021/04/08 04:22:30;;;;;;;;;;;;;;;-5.09;78.14;95746.27;1754832;82;21145;-70
2021/04/08 04:24:57;;;;;;;29.97;12.80;;;;;;;-4.89;77.74;95749.70;1754367;82;20426;-70
2021/04/08 04:27:26;;;;;;;25.93;13.00;;;;;;;-4.74;77.12;95750.34;1754336;82;21579;-70
2021/04/08 04:29:54;;;;;;;32.70;17.40;;;;;;;-4.61;76.48;95739.77;1725344;82;21137;-70
2021/04/08 04:32:22;;;;;;;40.40;20.20;;;;;;;-4.52;75.74;95746.98;1740132;82;21584;-70
2021/04/08 04:34:50;;;;;;;35.27;17.57;;;;;;;-4.45;75.10;95747.70;1740806;82;21129;-70
2021/04/08 04:37:17;;;;;;;30.07;15.90;;;;;;;-4.42;75.13;95749.53;1739887;81;21706;-70
2021/04/08 04:39:45;;;;;;;27.47;13.27;;;;;;;-4.39;75.37;95751.80;1740406;82;21467;-70
2021/04/08 04:42:14;;;;;;;25.87;13.57;;;;;;;-4.24;75.07;95751.97;1740565;82;21134;-70
2021/04/08 04:44:42;;;;;;;20.10;9.93;;;;;;;-4.15;75.05;95757.50;1740079;82;21260;-70
2021/04/08 04:47:10;;;;;;;20.17;10.43;;;;;;;-4.09;75.01;95755.15;1740190;82;21268;-70
2021/04/08 04:49:37;;;;;;;24.57;12.20;;;;;;;-4.00;74.84;95758.11;1740389;82;21134;-70
2021/04/08 04:52:06;;;;;;;25.33;12.20;;;;;;;-3.83;74.57;95760.06;1740019;82;21316;-70
2021/04/08 04:54:34;;;;;;;16.70;8.17;;;;;;;-3.83;74.17;95769.47;1740411;81;21142;-70
2021/04/08 04:57:02;;;;;;;12.03;6.10;;;;;;;-3.87;74.51;95772.34;1740040;82;21264;-70
2021/04/08 04:59:29;;;;;;;21.00;11.77;;;;;;;-3.89;74.52;95773.98;1740386;82;21142;-70
2021/04/08 05:01:57;;;;;;;33.07;14.30;;;;;;;-3.77;74.89;95776.17;1740370;82;21133;-70
2021/04/08 05:04:25;;;;;;;24.33;12.30;;;;;;;-3.68;74.11;95778.21;1740155;82;21320;-70
2021/04/08 05:06:53;;;;;;;20.63;11.43;;;;;;;-3.63;73.83;95785.72;1740098;82;21276;-71
2021/04/08 05:09:20;;;;;;;22.37;10.93;;;;;;;-3.47;73.55;95780.34;1740185;82;21726;-70
2021/04/08 05:11:48;;;;;;;24.10;13.13;;;;;;;-3.43;73.32;95785.19;1740214;82;21280;-70
2021/04/08 05:14:16;;;;;;;22.57;12.07;;;;;;;-3.40;73.47;95785.30;1740353;82;21702;-70
2021/04/08 05:16:44;;;;;;;30.03;15.63;;;;;;;-3.33;73.48;95793.32;1740072;82;21300;-70
2021/04/08 05:19:12;;;;;;;26.73;15.03;;;;;;;-3.23;73.46;95791.97;1740103;82;21565;-70
2021/04/08 05:21:39;;;;;;;29.20;15.73;;;;;;;-3.22;74.08;95795.04;1740278;82;21576;-70
2021/04/08 05:24:08;;;;;;;27.23;13.77;;;;;;;-3.12;74.25;95801.42;1739980;82;21312;-70
2021/04/08 05:26:35;;;;;;;30.33;15.27;;;;;;;-2.96;74.05;95794.69;1740106;82;21166;-70
2021/04/08 05:29:03;;;;;;;18.13;9.20;;;;;;;-2.78;73.71;95803.92;1740305;82;21273;-70
2021/04/08 05:31:31;;;;;;;24.93;13.77;;;;;;;-2.73;73.88;95797.22;1748721;81;21184;-70
2021/04/08 05:34:00;;;;;;;32.00;16.13;;;;;;;-2.61;74.11;95792.48;1754343;82;21139;-70
2021/04/08 05:36:27;;;;;;;19.70;10.73;;;;;;;-2.54;74.54;95801.34;1754287;82;21559;-70
2021/04/08 05:38:55;;;;;;;27.37;15.50;;;;;;;-2.34;74.42;95795.15;1753842;81;21173;-70
2021/04/08 05:41:22;;;;;;;19.97;11.50;;;;;;;-2.14;74.27;95791.94;1754283;82;21567;-70
2021/04/08 05:43:51;;;;;;;22.27;12.03;;;;;;;-1.96;73.64;95795.54;1754282;82;21161;-70
2021/04/08 05:46:19;;;;;;;23.40;11.10;;;;;;;-1.75;73.20;95793.63;1754212;82;21137;-70
2021/04/08 05:48:47;;;;;;;16.17;8.87;;;;;;;-1.53;72.94;95794.31;1754180;82;21101;-70
2021/04/08 05:51:15;;;;;;;12.57;6.70;;;;;;;-1.28;72.82;95789.89;1754103;82;21152;-70
2021/04/08 05:53:43;;;;;;;11.63;5.83;;;;;;;-1.02;71.62;95797.98;1753980;81;21165;-70
2021/04/08 05:56:12;;;;;;;11.17;5.87;;;;;;;-0.75;70.22;95787.96;1754113;82;21104;-70
2021/04/08 05:58:39;;;;;;;7.73;4.73;;;;;;;-0.52;70.12;95785.57;1754310;82;21153;-70
2021/04/08 06:01:07;;;;;;;10.90;6.70;;;;;;;-0.34;69.98;95783.88;1753927;82;21141;-70
2021/04/08 06:03:34;;;;;;;9.23;5.53;;;;;;;-0.23;69.98;95782.86;1754166;82;21587;-70
2021/04/08 06:06:02;;;;;;;5.67;3.87;;;;;;;-0.09;69.74;95787.11;1754065;82;21157;-70
2021/04/08 06:08:30;;;;;;;3.53;1.90;;;;;;;0.08;67.27;95791.44;1753835;82;21165;-71
2021/04/08 06:10:58;;;;;;;6.57;4.20;;;;;;;0.18;65.39;95786.93;1754088;81;21101;-70
2021/04/08 06:13:25;;;;;;;8.13;3.77;;;;;;;0.31;66.57;95788.10;1754255;82;21160;-70
2021/04/08 06:15:53;;;;;;;6.83;4.50;;;;;;;0.45;64.94;95789.70;1754243;81;21563;-70
2021/04/08 06:18:21;;;;;;;1.93;1.67;;;;;;;0.57;63.61;95799.08;1754195;82;21571;-70
2021/04/08 06:20:49;;;;;;;4.27;2.07;;;;;;;0.63;58.30;95793.63;1754168;81;21556;-71
2021/04/08 06:23:18;;;;;;;4.13;2.50;;;;;;;0.67;56.55;95798.88;1754110;81;21137;-70
2021/04/08 06:25:46;;;;;;;3.27;2.37;;;;;;;0.84;58.48;95794.94;1754066;81;21157;-70
2021/04/08 06:28:14;;;;;;;2.03;1.80;;;;;;;0.87;55.81;95802.79;1754091;82;21141;-70
2021/04/08 06:30:44;;;;;;;3.00;2.00;;;;;;;0.92;54.67;95788.61;1751693;81;21154;-70
2021/04/08 06:33:13;;;;;;;4.03;2.50;;;;;;;0.99;55.66;95804.79;1740047;82;21141;-70
2021/04/08 06:35:41;;;;;;;1.00;0.83;;;;;;;1.13;56.85;95800.73;1740289;82;21158;-70
2021/04/08 06:38:09;;;;;;;3.37;1.47;;;;;;;1.14;53.37;95805.55;1740143;82;21154;-70
2021/04/08 06:40:39;;;;;;;1.87;1.37;;;;;;;1.08;53.78;95810.16;1740046;82;21114;-70
2021/04/08 06:43:11;;;;;;;3.33;2.50;;;;;;;1.26;55.77;95817.47;1740072;82;21275;-70
2021/04/08 06:45:48;;;;;;;4.10;2.80;;;;;;;1.37;55.21;95812.08;1740336;82;21283;-71
2021/04/08 06:48:30;;;;;;;2.67;1.87;;;;;;;1.50;55.16;95819.70;1679839;85;21618;-70
2021/04/08 06:50:58;;;;;;;2.90;1.80;;;;;;;1.50;54.52;95817.97;1685950;84;21603;-70
2021/04/08 06:53:26;;;;;;;3.57;2.53;;;;;;;1.59;53.15;95814.69;1705114;84;21138;-70
2021/04/08 06:55:56;;;;;;;3.50;1.90;;;;;;;1.77;54.51;95821.97;1700064;84;21166;-70
2021/04/08 06:58:24;;;;;;;2.27;1.17;;;;;;;1.67;51.85;95828.71;1700296;84;21161;-70
2021/04/08 07:00:53;;;;;;;2.50;1.63;;;;;;;1.52;51.39;95824.52;1696158;84;21157;-70
2021/04/08 07:03:23;;;;;;;3.20;2.17;;;;;;;1.61;52.60;95830.30;1700367;84;21158;-70
2021/04/08 07:05:50;;;;;;;6.43;2.90;;;;;;;1.58;53.17;95841.95;1700159;84;21126;-70
2021/04/08 07:08:18;;;;;;;3.73;2.47;;;;;;;1.67;54.30;95832.61;1700051;84;21145;-70
2021/04/08 07:10:45;;;;;;;3.57;2.67;;;;;;;1.83;54.63;95836.80;1700001;84;21142;-71
2021/04/08 07:13:13;;;;;;;32.10;10.30;;;;;;;1.97;54.54;95839.25;1700396;84;21148;-70
2021/04/08 07:15:41;;;;;;;36.83;12.57;;;;;;;2.01;51.48;95838.87;1700136;84;21153;-70
2021/04/08 07:18:09;;;;;;;5.47;3.20;;;;;;;2.06;52.29;95848.51;1700142;84;21619;-68
2021/04/08 07:20:36;;;;;;;104.83;43.87;;;;;;;2.02;51.01;95854.95;1700386;84;21181;-68
2021/04/08 07:23:13;;;;;;;26.83;14.70;;;;;;;2.04;51.37;95852.83;1700335;84;21165;-68
2021/04/08 07:26:09;;;;;;;4.73;2.77;;;;;;;2.09;52.28;95856.40;1700082;84;21182;-68
2021/04/08 07:28:41;;;;;;;6.27;4.03;;;;;;;2.11;51.88;95861.61;1700223;84;21533;-70
2021/04/08 07:31:30;;;;;;;8.00;4.73;;;;;;;2.13;51.81;95871.63;1701091;83;21174;-70
2021/04/08 07:34:00;;;;;;;5.23;3.07;;;;;;;2.13;53.08;95883.34;1715307;84;21168;-70
2021/04/08 07:36:38;;;;;;;3.53;2.70;;;;;;;2.16;52.86;95898.58;1705779;84;21157;-70
2021/04/08 07:39:18;;;;;;;3.10;1.90;;;;;;;2.33;55.98;95885.02;1715012;84;21137;-70
2021/04/08 07:42:05;;;;;;;5.77;4.20;;;;;;;2.49;51.69;95893.96;1705873;84;21141;-70
2021/04/08 07:44:58;;;;;;;3.33;2.10;;;;;;;2.44;50.88;95889.97;1715465;84;21319;-71
2021/04/08 07:47:33;;;;;;;4.60;3.43;;;;;;;2.40;50.43;95906.84;1705344;84;21576;-70
2021/04/08 07:50:14;;;;;;;2.53;1.70;;;;;;;2.36;48.75;95899.38;1715446;83;21267;-71
2021/04/08 07:52:48;;;;;;;4.00;3.00;;;;;;;2.25;49.88;95911.34;1705521;84;21153;-70
2021/04/08 07:55:20;;;;;;;3.17;2.83;;;;;;;2.43;51.92;95914.70;1715298;83;21306;-70
2021/04/08 07:58:01;;;;;;;4.50;2.63;;;;;;;2.52;48.97;95923.95;1705787;84;21153;-70
2021/04/08 08:00:36;;;;;;;6.27;2.57;;;;;;;2.52;50.35;95913.54;1713094;84;21167;-70
2021/04/08 08:03:26;;;;;;;2.67;2.47;;;;;;;2.66;50.21;95913.36;1705876;84;21166;-70
2021/04/08 08:06:01;;;;;;;14.87;9.03;;;;;;;2.79;50.33;95919.66;1715519;83;21137;-71
2021/04/08 08:08:42;;;;;;;2.70;2.37;;;;;;;2.72;48.61;95926.91;1705789;84;21144;-71
2021/04/08 08:11:14;;;;;;;6.67;3.33;;;;;;;2.72;48.72;95932.13;1715316;84;21141;-71
2021/04/08 08:13:51;;;;;;;4.87;3.10;;;;;;;2.74;48.05;95927.82;1693913;84;21121;-68
2021/04/08 08:16:27;;;;;;;3.20;2.03;;;;;;;2.97;51.39;95929.50;1693722;85;21149;-68
2021/04/08 08:18:57;;;;;;;7.20;3.80;;;;;;;3.27;49.23;95940.83;1693731;85;21563;-68
2021/04/08 08:21:36;;;;;;;5.13;3.43;;;;;;;3.35;47.41;95934.42;1693500;84;21153;-69
2021/04/08 08:24:09;;;;;;;6.10;4.33;;;;;;;3.40;47.65;95939.28;1689830;85;21130;-69
2021/04/08 08:26:46;;;;;;;7.67;2.62;;;;;;;3.47;47.65;95952.44;1715470;84;21141;-68
2021/04/08 08:29:26;;;;;;;6.87;4.67;;;;;;;3.62;46.74;95943.95;1705553;84;21122;-69
2021/04/08 08:31:58;;;;;;;4.83;2.90;;;;;;;3.70;46.19;95944.05;1719426;83;21655;-69
2021/04/08 08:34:38;;;;;;;7.00;3.90;;;;;;;3.67;48.88;95962.28;1695757;85;21160;-69
2021/04/08 08:37:10;;;;;;;3.07;1.93;;;;;;;3.62;48.27;95951.78;1695568;85;21578;-69
2021/04/08 08:39:43;;;;;;;3.08;2.22;;;;;;;3.75;49.09;95959.78;1726124;83;21566;-69
2021/04/08 08:42:17;;;;;;;5.73;3.73;;;;;;;3.44;49.91;95966.74;1696799;84;21144;-69
2021/04/08 08:44:45;;;;;;;6.07;3.57;;;;;;;3.53;48.84;95962.51;1725857;83;21282;-69
2021/04/08 08:47:27;;;;;;;5.60;3.53;;;;;;;3.50;47.81;95964.64;1697189;84;21151;-69
2021/04/08 08:50:06;;;;;;;14.83;8.10;;;;;;;3.61;48.77;95955.69;1726432;83;21562;-69
2021/04/08 08:52:38;;;;;;;6.30;3.77;;;;;;;3.57;49.99;95965.62;1743457;82;21117;-69
2021/04/08 08:55:13;;;;;;;4.70;2.17;;;;;;;3.41;45.74;95970.62;1743513;82;21580;-69
2021/04/08 08:57:43;;;;;;;3.63;3.03;;;;;;;3.57;47.44;95957.36;1744131;82;21518;-69
2021/04/08 09:00:14;;;;;;;7.83;2.90;;;;;;;3.62;44.78;95957.43;1743619;82;21581;-68
2021/04/08 09:02:43;;;;;;;7.17;4.33;;;;;;;3.74;48.05;95951.08;1743356;82;21095;-69
2021/04/08 09:05:16;;;;;;;6.17;4.13;;;;;;;3.93;46.58;95950.00;1743740;82;21580;-68
2021/04/08 09:07:47;;;;;;;4.07;2.83;;;;;;;3.98;45.05;95962.28;1743835;82;21125;-69
2021/04/08 09:10:25;;;;;;;4.63;3.17;;;;;;;4.11;46.49;95952.87;1739662;82;21150;-69
2021/04/08 09:12:53;;;;;;;14.37;11.77;;;;;;;4.19;43.37;95945.99;1743725;82;21125;-68
2021/04/08 09:15:22;;;;;;;5.53;4.90;;;;;;;4.29;45.97;95952.20;1743613;82;21130;-69
2021/04/08 09:17:59;;;;;;;3.90;2.30;;;;;;;4.45;44.83;95964.56;1743005;82;21573;-69
2021/04/08 09:20:28;;;;;;;5.30;2.80;;;;;;;4.25;42.58;95962.16;1743675;82;21162;-68
2021/04/08 09:23:07;;;;;;;5.90;2.70;;;;;;;4.25;43.21;95977.39;1743596;82;21608;-68
2021/04/08 09:25:54;;;;;;;4.87;3.40;;;;;;;4.47;45.04;95960.67;1743667;82;21129;-68
2021/04/08 09:28:31;;;;;;;4.40;3.10;;;;;;;4.55;43.07;95962.92;1743640;82;21121;-69
2021/04/08 09:33:50;;;;;;;4.77;2.23;;;;;;;4.03;43.63;95984.11;1735606;82;21158;-69
2021/04/08 09:36:25;;;;;;;4.03;3.60;;;;;;;4.07;42.39;95985.88;1735155;83;21119;-68
2021/04/08 09:39:04;;;;;;;4.53;2.90;;;;;;;4.07;42.40;95994.15;1740164;82;21125;-69
2021/04/08 09:42:01;;;;;;;4.07;1.90;;;;;;;4.10;43.97;95981.12;1740116;81;21263;-68
2021/04/08 09:44:27;;;;;;;1.90;1.57;;;;;;;4.36;44.35;95970.11;1739722;82;21173;-69
2021/04/08 09:47:01;;;;;;;4.97;3.30;;;;;;;4.80;45.55;95978.44;1719676;82;21169;-69
2021/04/08 09:49:46;;;;;;;5.27;3.70;;;;;;;4.72;44.41;95972.27;1740394;82;21268;-68
2021/04/08 09:52:16;;;;;;;5.30;3.90;;;;;;;4.65;46.19;95967.83;1740211;82;21682;-69
2021/04/08 09:54:58;;;;;;;2.63;2.40;;;;;;;4.76;46.07;95972.72;1740156;82;21288;-69
2021/04/08 09:57:40;;;;;;;5.33;2.60;;;;;;;4.80;44.84;95971.90;1740096;82;21273;-69
2021/04/08 10:00:17;;;;;;;2.83;2.20;;;;;;;4.70;44.82;95977.45;1739922;82;21593;-69
2021/04/08 10:03:06;;;;;;;3.03;2.17;;;;;;;4.51;43.33;95976.81;1740164;82;21719;-69
2021/04/08 10:05:38;;;;;;;6.87;4.70;;;;;;;4.48;44.99;95984.63;1740319;82;21102;-69
2021/04/08 10:08:10;;;;;;;5.43;4.27;;;;;;;4.39;46.99;95996.30;1740395;82;21311;-68
2021/04/08 10:10:44;;;;;;;5.78;3.90;;;;;;;4.49;50.47;95990.31;1740415;82;21137;-68
2021/04/08 10:13:30;;;;;;;;;;;;;;;4.40;50.43;95988.89;1742954;82;21276;-69
2021/04/08 10:16:03;;;;;;;5.50;3.03;;;;;;;4.56;52.29;95993.41;1740112;82;20217;-69
2021/04/08 10:18:41;;;;;;;9.10;5.17;;;;;;;4.85;51.71;95989.81;1850713;77;23304;-69
2021/04/08 10:21:19;;;;;;;4.03;3.17;;;;;;;4.97;49.79;95992.55;1828204;78;21707;-69
2021/04/08 10:23:49;;;;;;;6.33;4.30;;;;;;;5.27;53.73;95981.05;1828222;78;21114;-69
2021/04/08 10:26:22;;;;;;;3.50;2.80;;;;;;;5.55;47.15;95982.13;1828174;78;21253;-69
2021/04/08 10:28:54;;;;;;;3.23;2.53;;;;;;;5.11;45.45;95987.87;1828445;78;21135;-69
2021/04/08 10:31:34;;;;;;;5.93;3.10;;;;;;;4.55;46.15;95990.37;1827952;78;21262;-69
2021/04/08 10:34:19;;;;;;;5.93;3.47;;;;;;;4.17;46.00;95997.77;1828512;78;21260;-69
2021/04/08 10:36:55;;;;;;;3.60;2.63;;;;;;;4.08;48.27;96002.42;1828187;78;21177;-69
2021/04/08 10:39:33;;;;;;;6.77;4.47;;;;;;;4.09;48.09;96010.72;1828098;78;21300;-69
2021/04/08 10:42:11;;;;;;;4.33;2.60;;;;;;;3.98;49.42;96004.46;1828425;78;21544;-69
2021/04/08 10:44:49;;;;;;;6.33;4.37;;;;;;;4.16;51.75;96015.17;1828481;78;21123;-69
2021/04/08 10:47:24;;;;;;;4.07;3.47;;;;;;;4.74;50.98;95990.15;1828030;78;21260;-69
2021/04/08 10:50:00;;;;;;;5.72;4.15;;;;;;;4.93;46.42;95980.30;1828355;78;21146;-69
2021/04/08 10:52:37;;;;;;;4.97;2.73;;;;;;;4.92;46.66;95981.61;1828317;78;21269;-69
2021/04/08 10:55:13;;;;;;;5.67;3.73;;;;;;;5.26;47.70;95980.58;1828021;78;21652;-69
2021/04/08 10:57:42;;;;;;;2.70;2.37;;;;;;;5.38;43.98;95985.92;1828244;78;21257;-69
2021/04/08 11:00:14;;;;;;;2.90;2.17;;;;;;;5.25;46.65;95973.17;1828466;78;21288;-69
2021/04/08 11:02:45;;;;;;;3.60;2.92;;;;;;;5.47;43.23;95971.61;1828246;78;21111;-69
2021/04/08 11:05:26;;;;;;;3.87;2.57;;;;;;;6.12;45.17;95971.56;1828294;78;21276;-69
2021/04/08 11:07:59;;;;;;;4.53;3.57;;;;;;;6.00;42.16;95984.63;1828185;78;21118;-69
2021/04/08 11:10:32;;;;;;;3.97;3.27;;;;;;;5.57;42.23;95977.34;1828329;78;21261;-69
2021/04/08 11:13:00;;;;;;;6.73;4.37;;;;;;;5.07;45.09;95972.59;1828230;78;21111;-69
2021/04/08 11:15:32;;;;;;;2.53;1.90;;;;;;;5.27;44.15;95981.05;1828204;78;21596;-69
2021/04/08 11:18:07;;;;;;;2.37;2.00;;;;;;;5.14;45.01;95985.27;1808294;78;21155;-69
2021/04/08 11:20:38;;;;;;;3.83;3.07;;;;;;;5.05;46.87;95980.84;1792935;80;21143;-69
2021/04/08 11:23:07;;;;;;;3.90;3.20;;;;;;;5.06;45.94;95989.12;1795934;80;21128;-69
2021/04/08 11:25:37;;;;;;;4.33;3.43;;;;;;;4.93;45.32;95985.52;1795938;80;21147;-69
2021/04/08 11:28:08;;;;;;;3.40;2.63;;;;;;;4.95;47.73;95982.50;1795973;80;21119;-69
2021/04/08 11:30:39;;;;;;;4.77;3.10;;;;;;;4.96;45.72;95987.29;1795280;80;21274;-69
2021/04/08 11:33:15;;;;;;;4.37;3.07;;;;;;;4.83;46.71;95986.30;1795824;80;21119;-69
2021/04/08 11:35:45;;;;;;;5.10;2.60;;;;;;;5.08;46.84;95976.08;1795310;80;21514;-69
2021/04/08 11:38:23;;;;;;;3.20;2.17;;;;;;;5.24;48.68;95977.97;1795729;80;21147;-69
2021/04/08 11:41:06;;;;;;;4.93;3.53;;;;;;;5.07;47.33;95975.64;1795348;80;21116;-69
2021/04/08 11:43:51;;;;;;;3.13;2.17;;;;;;;5.22;47.20;95983.63;1795491;80;21550;-69
2021/04/08 11:46:35;;;;;;;5.30;4.13;;;;;;;5.32;49.09;95986.75;1795614;80;21135;-69
2021/04/08 11:49:17;;;;;;;4.53;2.90;;;;;;;5.42;47.69;96002.09;1795419;79;21081;-69
2021/04/08 11:51:45;;;;;;;1.90;1.67;;;;;;;5.20;48.09;96018.04;1795348;79;21553;-69
2021/04/08 11:54:16;;;;;;;2.93;2.63;;;;;;;5.32;49.88;96015.53;1795388;80;21100;-69
2021/04/08 11:56:45;;;;;;;2.83;1.80;;;;;;;5.10;49.66;96005.30;1795583;80;21147;-69